sensor_id;sensor_type;location;lat;lon;timestamp;P1;durP1;ratioP1;P2;durP2;ratioP2
28836;SDS011;50669;50.982;11.022;2023-08-17T00:01:08;4.38;;;2.80;;
28836;SDS011;50669;50.982;11.022;2023-08-17T00:03:34;6.32;;;3.10;;
28836;SDS011;50669;50.982;11.022;2023-08-17T00:06:02;4.97;;;2.70;;
28836;SDS011;50669;50.982;11.022;2023-08-17T00:08:30;4.93;;;2.58;;
28836;SDS011;50669;50.982;11.022;2023-08-17T00:10:56;4.65;;;2.47;;
28836;SDS011;50669;50.982;11.022;2023-08-17T00:13:21;7.05;;;2.75;;
28836;SDS011;50669;50.982;11.022;2023-08-17T00:15:52;3.35;;;2.20;;
28836;SDS011;50669;50.982;11.022;2023-08-17T00:18:20;4.00;;;2.00;;
28836;SDS011;50669;50.982;11.022;2023-08-17T00:20:45;3.03;;;2.03;;
28836;SDS011;50669;50.982;11.022;2023-08-17T00:23:11;5.78;;;2.08;;
28836;SDS011;50669;50.982;11.022;2023-08-17T00:25:36;4.22;;;2.38;;
28836;SDS011;50669;50.982;11.022;2023-08-17T00:28:02;5.30;;;3.58;;
28836;SDS011;50669;50.982;11.022;2023-08-17T00:30:33;4.57;;;2.13;;
28836;SDS011;50669;50.982;11.022;2023-08-17T00:33:02;3.45;;;1.90;;
28836;SDS011;50669;50.982;11.022;2023-08-17T00:35:28;4.25;;;2.00;;
28836;SDS011;50669;50.982;11.022;2023-08-17T00:37:54;3.90;;;1.80;;
28836;SDS011;50669;50.982;11.022;2023-08-17T00:40:20;5.38;;;1.80;;
28836;SDS011;50669;50.982;11.022;2023-08-17T00:42:46;4.00;;;2.08;;
28836;SDS011;50669;50.982;11.022;2023-08-17T00:45:13;2.50;;;1.75;;
28836;SDS011;50669;50.982;11.022;2023-08-17T00:47:42;3.20;;;1.90;;
28836;SDS011;50669;50.982;11.022;2023-08-17T00:50:08;3.67;;;1.67;;
28836;SDS011;50669;50.982;11.022;2023-08-17T00:52:34;3.40;;;1.38;;
28836;SDS011;50669;50.982;11.022;2023-08-17T00:55:00;2.47;;;1.33;;
28836;SDS011;50669;50.982;11.022;2023-08-17T00:57:27;2.45;;;1.52;;
28836;SDS011;50669;50.982;11.022;2023-08-17T00:59:54;2.22;;;1.65;;
28836;SDS011;50669;50.982;11.022;2023-08-17T01:02:21;1.95;;;1.40;;
28836;SDS011;50669;50.982;11.022;2023-08-17T01:04:46;2.60;;;1.80;;
28836;SDS011;50669;50.982;11.022;2023-08-17T01:07:12;2.30;;;1.50;;
28836;SDS011;50669;50.982;11.022;2023-08-17T01:09:38;3.28;;;1.63;;
28836;SDS011;50669;50.982;11.022;2023-08-17T01:17:37;1.75;;;1.20;;
28836;SDS011;50669;50.982;11.022;2023-08-17T01:20:05;2.50;;;1.30;;
28836;SDS011;50669;50.982;11.022;2023-08-17T01:22:34;2.85;;;1.13;;
28836;SDS011;50669;50.982;11.022;2023-08-17T01:25:02;3.75;;;1.50;;
28836;SDS011;50669;50.982;11.022;2023-08-17T01:27:36;2.47;;;1.30;;
28836;SDS011;50669;50.982;11.022;2023-08-17T01:30:05;3.15;;;1.33;;
28836;SDS011;50669;50.982;11.022;2023-08-17T01:35:09;1.88;;;1.40;;
28836;SDS011;50669;50.982;11.022;2023-08-17T01:37:41;2.17;;;1.55;;
28836;SDS011;50669;50.982;11.022;2023-08-17T01:40:07;2.50;;;1.20;;
28836;SDS011;50669;50.982;11.022;2023-08-17T01:42:37;2.30;;;1.10;;
28836;SDS011;50669;50.982;11.022;2023-08-17T01:45:04;4.20;;;1.13;;
28836;SDS011;50669;50.982;11.022;2023-08-17T01:47:30;3.58;;;1.85;;
28836;SDS011;50669;50.982;11.022;2023-08-17T01:49:56;2.70;;;1.30;;
28836;SDS011;50669;50.982;11.022;2023-08-17T01:52:27;3.60;;;1.42;;
28836;SDS011;50669;50.982;11.022;2023-08-17T01:54:54;2.03;;;1.40;;
28836;SDS011;50669;50.982;11.022;2023-08-17T01:57:22;4.30;;;1.00;;
28836;SDS011;50669;50.982;11.022;2023-08-17T01:59:47;1.70;;;1.05;;
28836;SDS011;50669;50.982;11.022;2023-08-17T02:02:15;2.25;;;1.08;;
28836;SDS011;50669;50.982;11.022;2023-08-17T02:04:42;1.73;;;1.33;;
28836;SDS011;50669;50.982;11.022;2023-08-17T02:07:07;3.53;;;1.70;;
28836;SDS011;50669;50.982;11.022;2023-08-17T02:09:33;1.40;;;1.10;;
28836;SDS011;50669;50.982;11.022;2023-08-17T02:11:59;1.17;;;1.05;;
28836;SDS011;50669;50.982;11.022;2023-08-17T02:14:24;2.65;;;1.48;;
28836;SDS011;50669;50.982;11.022;2023-08-17T02:16:50;3.17;;;1.50;;
28836;SDS011;50669;50.982;11.022;2023-08-17T02:19:17;2.25;;;1.17;;
28836;SDS011;50669;50.982;11.022;2023-08-17T02:21:44;4.40;;;1.58;;
28836;SDS011;50669;50.982;11.022;2023-08-17T02:24:10;3.10;;;1.73;;
28836;SDS011;50669;50.982;11.022;2023-08-17T02:26:38;3.15;;;1.35;;
28836;SDS011;50669;50.982;11.022;2023-08-17T02:29:05;1.92;;;1.20;;
28836;SDS011;50669;50.982;11.022;2023-08-17T02:31:33;3.15;;;1.55;;
28836;SDS011;50669;50.982;11.022;2023-08-17T02:33:58;2.78;;;1.20;;
28836;SDS011;50669;50.982;11.022;2023-08-17T02:36:30;3.03;;;1.45;;
28836;SDS011;50669;50.982;11.022;2023-08-17T02:38:56;2.28;;;1.13;;
28836;SDS011;50669;50.982;11.022;2023-08-17T02:41:24;2.67;;;1.40;;
28836;SDS011;50669;50.982;11.022;2023-08-17T02:43:50;3.47;;;1.40;;
28836;SDS011;50669;50.982;11.022;2023-08-17T02:46:16;3.15;;;1.75;;
28836;SDS011;50669;50.982;11.022;2023-08-17T02:48:44;2.60;;;1.38;;
28836;SDS011;50669;50.982;11.022;2023-08-17T02:51:15;3.22;;;1.30;;
28836;SDS011;50669;50.982;11.022;2023-08-17T02:53:43;1.00;;;0.90;;
28836;SDS011;50669;50.982;11.022;2023-08-17T02:56:13;2.03;;;1.30;;
28836;SDS011;50669;50.982;11.022;2023-08-17T02:58:41;2.60;;;1.42;;
28836;SDS011;50669;50.982;11.022;2023-08-17T03:01:07;2.42;;;1.20;;
28836;SDS011;50669;50.982;11.022;2023-08-17T03:03:33;3.30;;;1.17;;
28836;SDS011;50669;50.982;11.022;2023-08-17T03:05:59;1.45;;;1.13;;
28836;SDS011;50669;50.982;11.022;2023-08-17T03:08:25;2.08;;;1.13;;
28836;SDS011;50669;50.982;11.022;2023-08-17T03:10:50;2.38;;;1.38;;
28836;SDS011;50669;50.982;11.022;2023-08-17T03:13:19;2.05;;;1.40;;
28836;SDS011;50669;50.982;11.022;2023-08-17T03:15:44;2.53;;;1.60;;
28836;SDS011;50669;50.982;11.022;2023-08-17T03:18:10;2.00;;;1.50;;
28836;SDS011;50669;50.982;11.022;2023-08-17T03:20:35;2.90;;;1.45;;
28836;SDS011;50669;50.982;11.022;2023-08-17T03:23:01;3.22;;;1.40;;
28836;SDS011;50669;50.982;11.022;2023-08-17T03:25:27;2.42;;;1.20;;
28836;SDS011;50669;50.982;11.022;2023-08-17T03:28:00;3.20;;;1.23;;
28836;SDS011;50669;50.982;11.022;2023-08-17T03:30:26;3.53;;;1.40;;
28836;SDS011;50669;50.982;11.022;2023-08-17T03:32:51;2.90;;;1.00;;
28836;SDS011;50669;50.982;11.022;2023-08-17T03:35:17;2.95;;;1.20;;
28836;SDS011;50669;50.982;11.022;2023-08-17T03:37:43;2.38;;;1.10;;
28836;SDS011;50669;50.982;11.022;2023-08-17T03:40:09;2.58;;;1.13;;
28836;SDS011;50669;50.982;11.022;2023-08-17T03:42:35;2.40;;;1.35;;
28836;SDS011;50669;50.982;11.022;2023-08-17T03:45:00;1.70;;;1.13;;
28836;SDS011;50669;50.982;11.022;2023-08-17T03:47:26;2.55;;;1.10;;
28836;SDS011;50669;50.982;11.022;2023-08-17T03:49:55;2.90;;;1.48;;
28836;SDS011;50669;50.982;11.022;2023-08-17T03:52:20;1.52;;;1.15;;
28836;SDS011;50669;50.982;11.022;2023-08-17T03:54:48;1.33;;;1.13;;
28836;SDS011;50669;50.982;11.022;2023-08-17T03:57:13;1.60;;;1.30;;
28836;SDS011;50669;50.982;11.022;2023-08-17T03:59:41;1.75;;;0.95;;
28836;SDS011;50669;50.982;11.022;2023-08-17T04:02:07;1.95;;;1.20;;
28836;SDS011;50669;50.982;11.022;2023-08-17T04:04:33;2.08;;;1.30;;
28836;SDS011;50669;50.982;11.022;2023-08-17T04:06:58;2.10;;;1.17;;
28836;SDS011;50669;50.982;11.022;2023-08-17T04:09:29;2.63;;;1.10;;
28836;SDS011;50669;50.982;11.022;2023-08-17T04:11:58;2.40;;;1.20;;
28836;SDS011;50669;50.982;11.022;2023-08-17T04:14:24;3.63;;;1.05;;
28836;SDS011;50669;50.982;11.022;2023-08-17T04:16:50;1.95;;;1.30;;
28836;SDS011;50669;50.982;11.022;2023-08-17T04:19:16;1.92;;;0.77;;
28836;SDS011;50669;50.982;11.022;2023-08-17T04:21:44;2.15;;;1.40;;
28836;SDS011;50669;50.982;11.022;2023-08-17T04:24:10;1.55;;;0.85;;
28836;SDS011;50669;50.982;11.022;2023-08-17T04:26:41;1.33;;;0.90;;
28836;SDS011;50669;50.982;11.022;2023-08-17T04:29:06;1.65;;;1.10;;
28836;SDS011;50669;50.982;11.022;2023-08-17T04:31:34;2.35;;;1.33;;
28836;SDS011;50669;50.982;11.022;2023-08-17T04:34:00;1.77;;;1.27;;
28836;SDS011;50669;50.982;11.022;2023-08-17T04:36:25;2.75;;;1.08;;
28836;SDS011;50669;50.982;11.022;2023-08-17T04:38:51;2.80;;;1.33;;
28836;SDS011;50669;50.982;11.022;2023-08-17T04:41:17;1.20;;;0.90;;
28836;SDS011;50669;50.982;11.022;2023-08-17T04:43:45;1.65;;;1.00;;
28836;SDS011;50669;50.982;11.022;2023-08-17T04:46:11;1.33;;;0.93;;
28836;SDS011;50669;50.982;11.022;2023-08-17T04:48:39;1.88;;;0.93;;
28836;SDS011;50669;50.982;11.022;2023-08-17T04:51:05;1.80;;;1.27;;
28836;SDS011;50669;50.982;11.022;2023-08-17T04:53:31;2.72;;;1.80;;
28836;SDS011;50669;50.982;11.022;2023-08-17T04:55:58;3.47;;;1.42;;
28836;SDS011;50669;50.982;11.022;2023-08-17T04:58:23;2.40;;;1.25;;
28836;SDS011;50669;50.982;11.022;2023-08-17T05:00:52;2.13;;;1.40;;
28836;SDS011;50669;50.982;11.022;2023-08-17T05:03:17;2.17;;;1.33;;
28836;SDS011;50669;50.982;11.022;2023-08-17T05:05:43;2.03;;;1.42;;
28836;SDS011;50669;50.982;11.022;2023-08-17T05:08:09;3.75;;;1.30;;
28836;SDS011;50669;50.982;11.022;2023-08-17T05:10:34;3.08;;;1.38;;
28836;SDS011;50669;50.982;11.022;2023-08-17T05:13:00;3.13;;;1.70;;
28836;SDS011;50669;50.982;11.022;2023-08-17T05:15:25;3.13;;;1.40;;
28836;SDS011;50669;50.982;11.022;2023-08-17T05:17:51;6.05;;;2.05;;
28836;SDS011;50669;50.982;11.022;2023-08-17T05:20:19;2.70;;;1.65;;
28836;SDS011;50669;50.982;11.022;2023-08-17T05:22:49;7.97;;;2.05;;
28836;SDS011;50669;50.982;11.022;2023-08-17T05:25:14;9.18;;;2.10;;
28836;SDS011;50669;50.982;11.022;2023-08-17T05:27:40;2.80;;;1.70;;
28836;SDS011;50669;50.982;11.022;2023-08-17T05:30:06;3.25;;;1.63;;
28836;SDS011;50669;50.982;11.022;2023-08-17T05:32:32;2.40;;;1.50;;
28836;SDS011;50669;50.982;11.022;2023-08-17T05:35:05;2.60;;;1.50;;
28836;SDS011;50669;50.982;11.022;2023-08-17T05:37:31;2.28;;;1.50;;
28836;SDS011;50669;50.982;11.022;2023-08-17T05:39:57;2.20;;;1.38;;
28836;SDS011;50669;50.982;11.022;2023-08-17T05:42:22;2.10;;;1.52;;
28836;SDS011;50669;50.982;11.022;2023-08-17T05:44:50;2.90;;;1.15;;
28836;SDS011;50669;50.982;11.022;2023-08-17T05:47:16;4.72;;;1.40;;
28836;SDS011;50669;50.982;11.022;2023-08-17T05:49:44;3.15;;;1.38;;
28836;SDS011;50669;50.982;11.022;2023-08-17T05:52:14;2.72;;;1.40;;
28836;SDS011;50669;50.982;11.022;2023-08-17T05:54:42;2.65;;;1.27;;
28836;SDS011;50669;50.982;11.022;2023-08-17T05:57:10;2.50;;;1.35;;
28836;SDS011;50669;50.982;11.022;2023-08-17T05:59:38;3.28;;;1.67;;
28836;SDS011;50669;50.982;11.022;2023-08-17T06:02:04;2.38;;;1.35;;
28836;SDS011;50669;50.982;11.022;2023-08-17T06:04:30;2.45;;;1.45;;
28836;SDS011;50669;50.982;11.022;2023-08-17T06:06:56;1.98;;;1.42;;
28836;SDS011;50669;50.982;11.022;2023-08-17T06:09:23;3.17;;;1.45;;
28836;SDS011;50669;50.982;11.022;2023-08-17T06:11:50;3.35;;;1.40;;
28836;SDS011;50669;50.982;11.022;2023-08-17T06:14:16;2.78;;;1.48;;
28836;SDS011;50669;50.982;11.022;2023-08-17T06:16:44;2.10;;;1.35;;
28836;SDS011;50669;50.982;11.022;2023-08-17T06:19:12;2.25;;;1.75;;
28836;SDS011;50669;50.982;11.022;2023-08-17T06:21:38;2.63;;;1.58;;
28836;SDS011;50669;50.982;11.022;2023-08-17T06:24:04;2.47;;;1.42;;
28836;SDS011;50669;50.982;11.022;2023-08-17T06:26:29;3.72;;;1.58;;
28836;SDS011;50669;50.982;11.022;2023-08-17T06:28:58;2.08;;;1.45;;
28836;SDS011;50669;50.982;11.022;2023-08-17T06:31:23;2.15;;;1.33;;
28836;SDS011;50669;50.982;11.022;2023-08-17T06:33:53;3.65;;;1.63;;
28836;SDS011;50669;50.982;11.022;2023-08-17T06:36:19;4.63;;;1.55;;
28836;SDS011;50669;50.982;11.022;2023-08-17T06:38:45;2.67;;;1.70;;
28836;SDS011;50669;50.982;11.022;2023-08-17T06:41:11;2.65;;;1.70;;
28836;SDS011;50669;50.982;11.022;2023-08-17T06:43:39;1.63;;;1.30;;
28836;SDS011;50669;50.982;11.022;2023-08-17T06:46:06;3.08;;;1.50;;
28836;SDS011;50669;50.982;11.022;2023-08-17T06:48:35;2.88;;;1.60;;
28836;SDS011;50669;50.982;11.022;2023-08-17T06:51:00;1.83;;;1.33;;
28836;SDS011;50669;50.982;11.022;2023-08-17T06:53:27;3.28;;;1.52;;
28836;SDS011;50669;50.982;11.022;2023-08-17T06:55:55;2.50;;;1.25;;
28836;SDS011;50669;50.982;11.022;2023-08-17T06:58:23;2.17;;;1.33;;
28836;SDS011;50669;50.982;11.022;2023-08-17T07:00:51;3.25;;;1.63;;
28836;SDS011;50669;50.982;11.022;2023-08-17T07:03:17;3.10;;;1.52;;
28836;SDS011;50669;50.982;11.022;2023-08-17T07:05:43;1.98;;;1.60;;
28836;SDS011;50669;50.982;11.022;2023-08-17T07:08:11;1.67;;;1.10;;
28836;SDS011;50669;50.982;11.022;2023-08-17T07:10:38;1.77;;;1.20;;
28836;SDS011;50669;50.982;11.022;2023-08-17T07:13:06;1.75;;;1.40;;
28836;SDS011;50669;50.982;11.022;2023-08-17T07:15:32;2.30;;;1.58;;
28836;SDS011;50669;50.982;11.022;2023-08-17T07:17:57;2.00;;;1.27;;
28836;SDS011;50669;50.982;11.022;2023-08-17T07:20:23;2.03;;;1.33;;
28836;SDS011;50669;50.982;11.022;2023-08-17T07:22:51;1.88;;;1.40;;
28836;SDS011;50669;50.982;11.022;2023-08-17T07:25:16;2.05;;;1.30;;
28836;SDS011;50669;50.982;11.022;2023-08-17T07:27:42;2.53;;;1.75;;
28836;SDS011;50669;50.982;11.022;2023-08-17T07:30:10;2.08;;;1.20;;
28836;SDS011;50669;50.982;11.022;2023-08-17T07:32:36;2.10;;;1.30;;
28836;SDS011;50669;50.982;11.022;2023-08-17T07:35:04;2.53;;;1.38;;
28836;SDS011;50669;50.982;11.022;2023-08-17T07:37:30;1.65;;;1.20;;
28836;SDS011;50669;50.982;11.022;2023-08-17T07:39:58;1.90;;;1.23;;
28836;SDS011;50669;50.982;11.022;2023-08-17T07:42:24;1.83;;;1.15;;
28836;SDS011;50669;50.982;11.022;2023-08-17T07:44:52;1.70;;;1.30;;
28836;SDS011;50669;50.982;11.022;2023-08-17T07:47:18;2.65;;;1.13;;
28836;SDS011;50669;50.982;11.022;2023-08-17T07:49:43;2.00;;;1.35;;
28836;SDS011;50669;50.982;11.022;2023-08-17T07:52:11;2.65;;;1.55;;
28836;SDS011;50669;50.982;11.022;2023-08-17T07:54:39;1.60;;;1.05;;
28836;SDS011;50669;50.982;11.022;2023-08-17T07:57:07;2.50;;;1.50;;
28836;SDS011;50669;50.982;11.022;2023-08-17T07:59:33;1.55;;;1.13;;
28836;SDS011;50669;50.982;11.022;2023-08-17T08:01:59;1.67;;;1.35;;
28836;SDS011;50669;50.982;11.022;2023-08-17T08:04:29;1.50;;;1.10;;
28836;SDS011;50669;50.982;11.022;2023-08-17T08:06:55;1.88;;;1.30;;
28836;SDS011;50669;50.982;11.022;2023-08-17T08:09:20;1.42;;;1.10;;
28836;SDS011;50669;50.982;11.022;2023-08-17T08:11:50;1.58;;;1.30;;
28836;SDS011;50669;50.982;11.022;2023-08-17T08:14:16;1.85;;;1.30;;
28836;SDS011;50669;50.982;11.022;2023-08-17T08:16:42;2.90;;;1.23;;
28836;SDS011;50669;50.982;11.022;2023-08-17T08:19:07;2.60;;;1.20;;
28836;SDS011;50669;50.982;11.022;2023-08-17T08:21:35;1.90;;;1.08;;
28836;SDS011;50669;50.982;11.022;2023-08-17T08:24:01;3.20;;;1.50;;
28836;SDS011;50669;50.982;11.022;2023-08-17T08:26:26;2.25;;;1.20;;
28836;SDS011;50669;50.982;11.022;2023-08-17T08:28:54;2.22;;;1.25;;
28836;SDS011;50669;50.982;11.022;2023-08-17T08:31:20;1.30;;;1.20;;
28836;SDS011;50669;50.982;11.022;2023-08-17T08:33:46;2.00;;;1.50;;
28836;SDS011;50669;50.982;11.022;2023-08-17T08:36:13;2.65;;;1.30;;
28836;SDS011;50669;50.982;11.022;2023-08-17T08:38:42;3.13;;;1.45;;
28836;SDS011;50669;50.982;11.022;2023-08-17T08:41:11;2.33;;;1.40;;
28836;SDS011;50669;50.982;11.022;2023-08-17T08:43:37;2.40;;;1.30;;
28836;SDS011;50669;50.982;11.022;2023-08-17T08:46:03;2.30;;;1.35;;
28836;SDS011;50669;50.982;11.022;2023-08-17T08:48:29;2.10;;;1.42;;
28836;SDS011;50669;50.982;11.022;2023-08-17T08:51:00;1.25;;;1.15;;
28836;SDS011;50669;50.982;11.022;2023-08-17T08:53:59;1.95;;;1.10;;
28836;SDS011;50669;50.982;11.022;2023-08-17T08:56:25;2.15;;;1.13;;
28836;SDS011;50669;50.982;11.022;2023-08-17T08:58:58;1.63;;;1.10;;
28836;SDS011;50669;50.982;11.022;2023-08-17T09:01:29;1.50;;;1.00;;
28836;SDS011;50669;50.982;11.022;2023-08-17T09:03:58;1.60;;;1.27;;
28836;SDS011;50669;50.982;11.022;2023-08-17T09:06:28;2.03;;;1.10;;
28836;SDS011;50669;50.982;11.022;2023-08-17T09:08:54;1.98;;;1.15;;
28836;SDS011;50669;50.982;11.022;2023-08-17T09:11:21;2.13;;;1.40;;
28836;SDS011;50669;50.982;11.022;2023-08-17T09:13:47;1.95;;;1.10;;
28836;SDS011;50669;50.982;11.022;2023-08-17T09:16:13;1.45;;;1.15;;
28836;SDS011;50669;50.982;11.022;2023-08-17T09:18:38;1.23;;;0.95;;
28836;SDS011;50669;50.982;11.022;2023-08-17T09:21:05;1.95;;;1.10;;
28836;SDS011;50669;50.982;11.022;2023-08-17T09:23:30;2.17;;;1.30;;
28836;SDS011;50669;50.982;11.022;2023-08-17T09:25:56;1.60;;;1.20;;
28836;SDS011;50669;50.982;11.022;2023-08-17T09:28:24;1.58;;;1.08;;
28836;SDS011;50669;50.982;11.022;2023-08-17T09:31:00;1.50;;;1.10;;
28836;SDS011;50669;50.982;11.022;2023-08-17T09:33:30;1.20;;;0.90;;
28836;SDS011;50669;50.982;11.022;2023-08-17T09:35:56;2.30;;;1.00;;
28836;SDS011;50669;50.982;11.022;2023-08-17T09:38:25;1.50;;;1.08;;
28836;SDS011;50669;50.982;11.022;2023-08-17T09:40:52;1.80;;;1.17;;
28836;SDS011;50669;50.982;11.022;2023-08-17T09:43:20;1.40;;;1.20;;
28836;SDS011;50669;50.982;11.022;2023-08-17T09:45:47;1.60;;;1.10;;
28836;SDS011;50669;50.982;11.022;2023-08-17T09:48:16;2.08;;;1.40;;
28836;SDS011;50669;50.982;11.022;2023-08-17T09:50:43;1.42;;;1.10;;
28836;SDS011;50669;50.982;11.022;2023-08-17T09:53:13;1.42;;;1.13;;
28836;SDS011;50669;50.982;11.022;2023-08-17T09:55:42;1.88;;;1.20;;
28836;SDS011;50669;50.982;11.022;2023-08-17T09:58:09;1.75;;;1.15;;
28836;SDS011;50669;50.982;11.022;2023-08-17T10:00:39;2.05;;;1.13;;
28836;SDS011;50669;50.982;11.022;2023-08-17T10:03:11;2.30;;;1.20;;
28836;SDS011;50669;50.982;11.022;2023-08-17T10:05:40;1.92;;;1.30;;
28836;SDS011;50669;50.982;11.022;2023-08-17T10:08:10;1.52;;;1.17;;
28836;SDS011;50669;50.982;11.022;2023-08-17T10:10:38;1.83;;;1.08;;
28836;SDS011;50669;50.982;11.022;2023-08-17T10:13:09;2.83;;;1.15;;
28836;SDS011;50669;50.982;11.022;2023-08-17T10:15:37;1.75;;;1.27;;
28836;SDS011;50669;50.982;11.022;2023-08-17T10:18:15;1.23;;;1.10;;
28836;SDS011;50669;50.982;11.022;2023-08-17T10:21:03;2.25;;;1.27;;
28836;SDS011;50669;50.982;11.022;2023-08-17T10:23:32;1.30;;;1.00;;
28836;SDS011;50669;50.982;11.022;2023-08-17T10:26:00;1.33;;;1.23;;
28836;SDS011;50669;50.982;11.022;2023-08-17T10:28:28;2.20;;;1.50;;
28836;SDS011;50669;50.982;11.022;2023-08-17T10:30:58;1.13;;;1.00;;
28836;SDS011;50669;50.982;11.022;2023-08-17T10:33:26;2.38;;;1.38;;
28836;SDS011;50669;50.982;11.022;2023-08-17T10:35:53;1.55;;;1.00;;
28836;SDS011;50669;50.982;11.022;2023-08-17T10:38:22;2.00;;;1.10;;
28836;SDS011;50669;50.982;11.022;2023-08-17T10:41:07;2.47;;;1.40;;
28836;SDS011;50669;50.982;11.022;2023-08-17T10:43:52;1.48;;;1.17;;
28836;SDS011;50669;50.982;11.022;2023-08-17T10:46:34;1.45;;;1.20;;
28836;SDS011;50669;50.982;11.022;2023-08-17T10:49:04;1.70;;;0.93;;
28836;SDS011;50669;50.982;11.022;2023-08-17T10:51:31;1.13;;;0.93;;
28836;SDS011;50669;50.982;11.022;2023-08-17T10:54:03;2.15;;;1.27;;
28836;SDS011;50669;50.982;11.022;2023-08-17T10:56:29;1.85;;;1.20;;
28836;SDS011;50669;50.982;11.022;2023-08-17T10:59:01;1.73;;;1.10;;
28836;SDS011;50669;50.982;11.022;2023-08-17T11:01:30;1.40;;;1.25;;
28836;SDS011;50669;50.982;11.022;2023-08-17T11:04:08;1.85;;;1.27;;
28836;SDS011;50669;50.982;11.022;2023-08-17T11:06:37;1.45;;;0.90;;
28836;SDS011;50669;50.982;11.022;2023-08-17T11:09:06;1.88;;;1.35;;
28836;SDS011;50669;50.982;11.022;2023-08-17T11:11:32;1.42;;;1.20;;
28836;SDS011;50669;50.982;11.022;2023-08-17T11:13:58;1.85;;;1.10;;
28836;SDS011;50669;50.982;11.022;2023-08-17T11:16:24;2.55;;;1.20;;
28836;SDS011;50669;50.982;11.022;2023-08-17T11:18:52;1.48;;;1.00;;
28836;SDS011;50669;50.982;11.022;2023-08-17T11:21:17;1.13;;;0.90;;
28836;SDS011;50669;50.982;11.022;2023-08-17T11:23:46;3.25;;;1.35;;
28836;SDS011;50669;50.982;11.022;2023-08-17T11:26:12;1.45;;;1.10;;
28836;SDS011;50669;50.982;11.022;2023-08-17T11:28:41;1.45;;;1.20;;
28836;SDS011;50669;50.982;11.022;2023-08-17T11:31:12;2.13;;;1.20;;
28836;SDS011;50669;50.982;11.022;2023-08-17T11:33:39;1.65;;;1.17;;
28836;SDS011;50669;50.982;11.022;2023-08-17T11:36:06;1.70;;;0.98;;
28836;SDS011;50669;50.982;11.022;2023-08-17T11:38:32;1.30;;;1.20;;
28836;SDS011;50669;50.982;11.022;2023-08-17T11:40:59;1.52;;;1.20;;
28836;SDS011;50669;50.982;11.022;2023-08-17T11:43:26;1.70;;;1.20;;
28836;SDS011;50669;50.982;11.022;2023-08-17T11:45:54;1.48;;;1.17;;
28836;SDS011;50669;50.982;11.022;2023-08-17T11:48:20;1.80;;;1.38;;
28836;SDS011;50669;50.982;11.022;2023-08-17T11:50:46;1.00;;;0.90;;
28836;SDS011;50669;50.982;11.022;2023-08-17T11:53:14;1.38;;;1.10;;
28836;SDS011;50669;50.982;11.022;2023-08-17T11:55:40;1.52;;;1.10;;
28836;SDS011;50669;50.982;11.022;2023-08-17T11:58:06;1.73;;;1.00;;
28836;SDS011;50669;50.982;11.022;2023-08-17T12:00:34;1.80;;;1.00;;
28836;SDS011;50669;50.982;11.022;2023-08-17T12:03:03;1.75;;;1.10;;
28836;SDS011;50669;50.982;11.022;2023-08-17T12:05:30;1.20;;;0.95;;
28836;SDS011;50669;50.982;11.022;2023-08-17T12:07:59;1.67;;;1.13;;
28836;SDS011;50669;50.982;11.022;2023-08-17T12:10:28;1.17;;;1.00;;
28836;SDS011;50669;50.982;11.022;2023-08-17T12:12:59;2.55;;;1.35;;
28836;SDS011;50669;50.982;11.022;2023-08-17T12:15:30;2.15;;;1.30;;
28836;SDS011;50669;50.982;11.022;2023-08-17T12:18:02;1.40;;;0.93;;
28836;SDS011;50669;50.982;11.022;2023-08-17T12:20:29;1.10;;;0.95;;
28836;SDS011;50669;50.982;11.022;2023-08-17T12:23:01;1.42;;;0.90;;
28836;SDS011;50669;50.982;11.022;2023-08-17T12:25:27;1.92;;;1.02;;
28836;SDS011;50669;50.982;11.022;2023-08-17T12:27:57;2.25;;;1.20;;
28836;SDS011;50669;50.982;11.022;2023-08-17T12:30:31;1.73;;;1.10;;
28836;SDS011;50669;50.982;11.022;2023-08-17T12:33:02;1.20;;;0.90;;
28836;SDS011;50669;50.982;11.022;2023-08-17T12:35:29;1.67;;;1.20;;
28836;SDS011;50669;50.982;11.022;2023-08-17T12:37:56;1.23;;;0.90;;
28836;SDS011;50669;50.982;11.022;2023-08-17T12:40:24;1.58;;;1.00;;
28836;SDS011;50669;50.982;11.022;2023-08-17T12:42:54;1.83;;;1.02;;
28836;SDS011;50669;50.982;11.022;2023-08-17T12:45:20;1.67;;;1.27;;
28836;SDS011;50669;50.982;11.022;2023-08-17T12:47:46;1.27;;;1.00;;
28836;SDS011;50669;50.982;11.022;2023-08-17T12:50:11;1.35;;;1.08;;
28836;SDS011;50669;50.982;11.022;2023-08-17T12:52:37;1.60;;;0.73;;
28836;SDS011;50669;50.982;11.022;2023-08-17T12:55:02;1.40;;;1.05;;
28836;SDS011;50669;50.982;11.022;2023-08-17T12:57:31;1.73;;;1.23;;
28836;SDS011;50669;50.982;11.022;2023-08-17T12:59:56;1.85;;;0.90;;
28836;SDS011;50669;50.982;11.022;2023-08-17T13:02:22;1.40;;;0.98;;
28836;SDS011;50669;50.982;11.022;2023-08-17T13:04:48;1.23;;;1.00;;
28836;SDS011;50669;50.982;11.022;2023-08-17T13:07:16;1.25;;;1.00;;
28836;SDS011;50669;50.982;11.022;2023-08-17T13:09:42;0.98;;;0.88;;
28836;SDS011;50669;50.982;11.022;2023-08-17T13:12:07;1.10;;;1.00;;
28836;SDS011;50669;50.982;11.022;2023-08-17T13:14:33;1.20;;;1.00;;
28836;SDS011;50669;50.982;11.022;2023-08-17T13:17:01;1.38;;;1.00;;
28836;SDS011;50669;50.982;11.022;2023-08-17T13:19:27;1.75;;;1.17;;
28836;SDS011;50669;50.982;11.022;2023-08-17T13:21:53;2.95;;;1.17;;
28836;SDS011;50669;50.982;11.022;2023-08-17T13:24:18;1.73;;;0.98;;
28836;SDS011;50669;50.982;11.022;2023-08-17T13:26:46;1.10;;;1.00;;
28836;SDS011;50669;50.982;11.022;2023-08-17T13:29:20;1.55;;;1.17;;
28836;SDS011;50669;50.982;11.022;2023-08-17T13:31:46;1.65;;;1.08;;
28836;SDS011;50669;50.982;11.022;2023-08-17T13:34:13;1.45;;;0.82;;
28836;SDS011;50669;50.982;11.022;2023-08-17T13:36:38;1.65;;;1.00;;
28836;SDS011;50669;50.982;11.022;2023-08-17T13:39:04;2.53;;;1.00;;
28836;SDS011;50669;50.982;11.022;2023-08-17T13:41:31;1.00;;;0.82;;
28836;SDS011;50669;50.982;11.022;2023-08-17T13:43:59;1.30;;;0.80;;
28836;SDS011;50669;50.982;11.022;2023-08-17T13:46:27;1.42;;;1.10;;
28836;SDS011;50669;50.982;11.022;2023-08-17T13:48:52;1.48;;;0.93;;
28836;SDS011;50669;50.982;11.022;2023-08-17T13:51:20;1.08;;;0.90;;
28836;SDS011;50669;50.982;11.022;2023-08-17T13:53:46;1.45;;;0.85;;
28836;SDS011;50669;50.982;11.022;2023-08-17T13:56:12;1.60;;;0.90;;
28836;SDS011;50669;50.982;11.022;2023-08-17T13:58:39;1.20;;;1.05;;
28836;SDS011;50669;50.982;11.022;2023-08-17T14:01:05;1.58;;;0.90;;
28836;SDS011;50669;50.982;11.022;2023-08-17T14:03:31;1.25;;;1.05;;
28836;SDS011;50669;50.982;11.022;2023-08-17T14:05:56;1.10;;;1.00;;
28836;SDS011;50669;50.982;11.022;2023-08-17T14:08:22;1.25;;;1.13;;
28836;SDS011;50669;50.982;11.022;2023-08-17T14:10:47;1.00;;;0.90;;
28836;SDS011;50669;50.982;11.022;2023-08-17T14:13:15;1.40;;;1.05;;
28836;SDS011;50669;50.982;11.022;2023-08-17T14:15:41;1.67;;;0.90;;
28836;SDS011;50669;50.982;11.022;2023-08-17T14:18:09;1.23;;;1.00;;
28836;SDS011;50669;50.982;11.022;2023-08-17T14:20:35;0.98;;;0.82;;
28836;SDS011;50669;50.982;11.022;2023-08-17T14:23:05;1.27;;;1.00;;
28836;SDS011;50669;50.982;11.022;2023-08-17T14:25:33;1.58;;;1.05;;
28836;SDS011;50669;50.982;11.022;2023-08-17T14:28:02;1.13;;;1.00;;
28836;SDS011;50669;50.982;11.022;2023-08-17T14:30:29;1.75;;;0.93;;
28836;SDS011;50669;50.982;11.022;2023-08-17T14:32:55;1.23;;;1.02;;
28836;SDS011;50669;50.982;11.022;2023-08-17T14:35:23;1.45;;;0.98;;
28836;SDS011;50669;50.982;11.022;2023-08-17T14:37:48;1.40;;;1.00;;
28836;SDS011;50669;50.982;11.022;2023-08-17T14:40:14;1.70;;;1.25;;
28836;SDS011;50669;50.982;11.022;2023-08-17T14:42:46;0.90;;;0.80;;